Terminal Aerodrome Forecast
Issued by NWS Boston, MA

Current Version | Previous Version | Text Only | Print | Product List | Glossary On
Versions: 1 2 3 4 5 6 7 8 9 10 11 12 13 14 15 16 17 18 19 20 21 22 23 24 25 26 27 28
000 FTUS41 KBOX 230536 AAC TAFORH TAF AMD KORH 230536Z 2306/2406 VRB03KT 5SM BR SCT003 BKN010 TEMPO 2306/2310 3/4SM BR OVC002 FM231200 36006KT P6SM FEW200 SCT250 FM232300 00000KT P6SM BKN150=

USA.gov is the U.S. government's official web portal to all federal, state and local government web resources and services.